Saxon, Wisconsin
Current Conditions -  °F | °C
As of 4:55 PM on Monday 22 Dec 2014 (Local Time) from KIWD Reporting Station
Overcast Overcast  
Wind Chill: 29°   Ceiling: 1000
Heat Index: 36°   Visibility: 9mi
Dew Point: 32°   Wind: 8mph
Humidity: 87%   Direction: 90°E
Pressure: 29.72"   Gusts: NA
Location:  46.49°N, 90.41°W
Report Text: KIWD 222255Z AUTO 09007KT 9SM OVC010 02/00 A2972 RMK AO1
Loading
Personal Weather Stations






























Interactive Weather Map New forecast layout! Learn more

10-Day Weather Forecast

Advertisements
Track Severe Weather on mobile